Barra do Pirai, Brazil
Current Conditions -  °F | °C
As of 3:00 PM on Wednesday 26 Nov 2014 (Local Time) from SBSC Reporting Station
Light Rain Light Rain  
Wind Chill: 90°   Ceiling: 10000
Heat Index: 95°   Visibility: 5mi
Dew Point: 70°   Wind: 12mph
Humidity: 52%   Direction: 10°N
Pressure: 29.65"   Gusts: NA
Location:  22.47°S, 43.83°W
Report Text: SBSC 261700Z 01010KT 8000 -RA SCT025 BKN100 32/21 Q1004
Loading
Personal Weather Stations






























Interactive Weather Map New forecast layout! Learn more

10-Day Weather Forecast

Advertisements
Track Severe Weather on mobile